sensor_id;sensor_type;location;lat;lon;timestamp;temperature;humidity
33255;DHT22;19623;52.482;9.762;2023-02-01T00:00:06;5.50;99.90
33255;DHT22;19623;52.482;9.762;2023-02-01T00:02:31;5.50;99.90
33255;DHT22;19623;52.482;9.762;2023-02-01T00:04:57;5.60;99.90
33255;DHT22;19623;52.482;9.762;2023-02-01T00:07:23;5.60;99.90
33255;DHT22;19623;52.482;9.762;2023-02-01T00:09:48;5.60;99.90
33255;DHT22;19623;52.482;9.762;2023-02-01T00:12:14;5.60;99.90
33255;DHT22;19623;52.482;9.762;2023-02-01T00:14:39;5.60;99.90
33255;DHT22;19623;52.482;9.762;2023-02-01T00:17:06;5.60;99.90
33255;DHT22;19623;52.482;9.762;2023-02-01T00:19:34;5.60;99.90
33255;DHT22;19623;52.482;9.762;2023-02-01T00:22:00;5.60;99.90
33255;DHT22;19623;52.482;9.762;2023-02-01T00:24:26;5.60;99.90
33255;DHT22;19623;52.482;9.762;2023-02-01T00:26:51;5.60;99.90
33255;DHT22;19623;52.482;9.762;2023-02-01T00:29:19;5.60;99.90
33255;DHT22;19623;52.482;9.762;2023-02-01T00:31:45;5.60;99.90
33255;DHT22;19623;52.482;9.762;2023-02-01T00:34:14;5.60;99.90
33255;DHT22;19623;52.482;9.762;2023-02-01T00:36:42;5.50;99.90
33255;DHT22;19623;52.482;9.762;2023-02-01T00:39:08;5.60;99.90
33255;DHT22;19623;52.482;9.762;2023-02-01T00:41:34;5.60;99.90
33255;DHT22;19623;52.482;9.762;2023-02-01T00:43:59;5.60;99.90
33255;DHT22;19623;52.482;9.762;2023-02-01T00:46:25;5.50;99.90
33255;DHT22;19623;52.482;9.762;2023-02-01T00:48:51;5.60;99.90
33255;DHT22;19623;52.482;9.762;2023-02-01T00:51:20;5.50;99.90
33255;DHT22;19623;52.482;9.762;2023-02-01T00:53:46;5.60;99.90
33255;DHT22;19623;52.482;9.762;2023-02-01T00:56:12;5.60;99.90
33255;DHT22;19623;52.482;9.762;2023-02-01T00:58:38;5.60;99.90
33255;DHT22;19623;52.482;9.762;2023-02-01T01:01:06;5.60;99.90
33255;DHT22;19623;52.482;9.762;2023-02-01T01:03:34;5.60;99.90
33255;DHT22;19623;52.482;9.762;2023-02-01T01:06:02;5.50;99.90
33255;DHT22;19623;52.482;9.762;2023-02-01T01:08:29;5.60;99.90
33255;DHT22;19623;52.482;9.762;2023-02-01T01:10:54;5.60;99.90
33255;DHT22;19623;52.482;9.762;2023-02-01T01:13:20;5.50;99.90
33255;DHT22;19623;52.482;9.762;2023-02-01T01:15:46;5.50;99.90
33255;DHT22;19623;52.482;9.762;2023-02-01T01:18:12;5.50;99.90
33255;DHT22;19623;52.482;9.762;2023-02-01T01:20:39;5.50;99.90
33255;DHT22;19623;52.482;9.762;2023-02-01T01:23:07;5.60;99.90
33255;DHT22;19623;52.482;9.762;2023-02-01T01:25:37;5.60;99.90
33255;DHT22;19623;52.482;9.762;2023-02-01T01:28:03;5.60;99.90
33255;DHT22;19623;52.482;9.762;2023-02-01T01:30:28;5.60;99.90
33255;DHT22;19623;52.482;9.762;2023-02-01T01:32:54;5.60;99.90
33255;DHT22;19623;52.482;9.762;2023-02-01T01:35:19;5.60;99.90
33255;DHT22;19623;52.482;9.762;2023-02-01T01:37:45;5.60;99.90
33255;DHT22;19623;52.482;9.762;2023-02-01T01:40:11;5.60;99.90
33255;DHT22;19623;52.482;9.762;2023-02-01T01:42:38;5.60;99.90
33255;DHT22;19623;52.482;9.762;2023-02-01T01:47:50;5.60;99.90
33255;DHT22;19623;52.482;9.762;2023-02-01T01:50:19;5.60;99.90
33255;DHT22;19623;52.482;9.762;2023-02-01T01:52:48;5.60;99.90
33255;DHT22;19623;52.482;9.762;2023-02-01T01:55:17;5.60;99.90
33255;DHT22;19623;52.482;9.762;2023-02-01T01:57:50;5.60;99.90
33255;DHT22;19623;52.482;9.762;2023-02-01T02:00:19;5.60;99.90
33255;DHT22;19623;52.482;9.762;2023-02-01T02:02:47;5.60;99.90
33255;DHT22;19623;52.482;9.762;2023-02-01T02:05:15;5.60;99.90
33255;DHT22;19623;52.482;9.762;2023-02-01T02:07:46;5.60;99.90
33255;DHT22;19623;52.482;9.762;2023-02-01T02:10:13;5.60;99.90
33255;DHT22;19623;52.482;9.762;2023-02-01T02:12:42;5.60;99.90
33255;DHT22;19623;52.482;9.762;2023-02-01T02:15:11;5.60;99.90
33255;DHT22;19623;52.482;9.762;2023-02-01T02:31:12;5.50;99.90
33255;DHT22;19623;52.482;9.762;2023-02-01T02:33:59;5.50;99.90
33255;DHT22;19623;52.482;9.762;2023-02-01T02:39:34;5.50;99.90
33255;DHT22;19623;52.482;9.762;2023-02-01T02:45:12;5.60;99.90
33255;DHT22;19623;52.482;9.762;2023-02-01T02:50:34;5.50;99.90
33255;DHT22;19623;52.482;9.762;2023-02-01T02:56:10;5.50;99.90
33255;DHT22;19623;52.482;9.762;2023-02-01T02:58:57;5.50;99.90
33255;DHT22;19623;52.482;9.762;2023-02-01T03:01:42;5.50;99.90
33255;DHT22;19623;52.482;9.762;2023-02-01T03:04:27;5.50;99.90
33255;DHT22;19623;52.482;9.762;2023-02-01T03:06:53;5.60;99.90
33255;DHT22;19623;52.482;9.762;2023-02-01T03:09:31;5.60;99.90
33255;DHT22;19623;52.482;9.762;2023-02-01T03:12:03;5.60;99.90
33255;DHT22;19623;52.482;9.762;2023-02-01T03:14:51;5.70;99.90
33255;DHT22;19623;52.482;9.762;2023-02-01T03:17:22;5.70;99.90
33255;DHT22;19623;52.482;9.762;2023-02-01T03:19:52;5.70;99.90
33255;DHT22;19623;52.482;9.762;2023-02-01T03:22:22;5.70;99.90
33255;DHT22;19623;52.482;9.762;2023-02-01T03:27:22;5.70;99.90
33255;DHT22;19623;52.482;9.762;2023-02-01T03:30:03;5.70;99.90
33255;DHT22;19623;52.482;9.762;2023-02-01T03:32:34;5.70;99.90
33255;DHT22;19623;52.482;9.762;2023-02-01T03:35:29;5.70;99.90
33255;DHT22;19623;52.482;9.762;2023-02-01T03:38:08;5.70;99.90
33255;DHT22;19623;52.482;9.762;2023-02-01T03:40:39;5.70;99.90
33255;DHT22;19623;52.482;9.762;2023-02-01T03:43:12;5.70;99.90
33255;DHT22;19623;52.482;9.762;2023-02-01T03:45:44;5.70;99.90
33255;DHT22;19623;52.482;9.762;2023-02-01T03:48:13;5.70;99.90
33255;DHT22;19623;52.482;9.762;2023-02-01T03:50:44;5.70;99.90
33255;DHT22;19623;52.482;9.762;2023-02-01T03:53:15;5.70;99.90
33255;DHT22;19623;52.482;9.762;2023-02-01T03:55:42;5.70;99.90
33255;DHT22;19623;52.482;9.762;2023-02-01T03:58:15;5.70;99.90
33255;DHT22;19623;52.482;9.762;2023-02-01T04:00:45;5.70;99.90
33255;DHT22;19623;52.482;9.762;2023-02-01T04:03:11;5.70;99.90
33255;DHT22;19623;52.482;9.762;2023-02-01T04:05:37;5.70;99.90
33255;DHT22;19623;52.482;9.762;2023-02-01T04:08:03;5.70;99.90
33255;DHT22;19623;52.482;9.762;2023-02-01T04:10:30;5.70;99.90
33255;DHT22;19623;52.482;9.762;2023-02-01T04:12:56;5.70;99.90
33255;DHT22;19623;52.482;9.762;2023-02-01T04:15:21;5.70;99.90
33255;DHT22;19623;52.482;9.762;2023-02-01T04:17:47;5.80;99.90
33255;DHT22;19623;52.482;9.762;2023-02-01T04:20:13;5.80;99.90
33255;DHT22;19623;52.482;9.762;2023-02-01T04:22:38;5.80;99.90
33255;DHT22;19623;52.482;9.762;2023-02-01T04:25:04;5.80;99.90
33255;DHT22;19623;52.482;9.762;2023-02-01T04:27:31;5.80;99.90
33255;DHT22;19623;52.482;9.762;2023-02-01T04:29:57;5.80;99.90
33255;DHT22;19623;52.482;9.762;2023-02-01T04:32:22;5.80;99.90
33255;DHT22;19623;52.482;9.762;2023-02-01T04:34:48;5.80;99.90
33255;DHT22;19623;52.482;9.762;2023-02-01T04:37:13;5.80;99.90
33255;DHT22;19623;52.482;9.762;2023-02-01T04:39:39;5.80;99.90
33255;DHT22;19623;52.482;9.762;2023-02-01T04:42:05;5.90;99.90
33255;DHT22;19623;52.482;9.762;2023-02-01T04:44:30;5.80;99.90
33255;DHT22;19623;52.482;9.762;2023-02-01T04:46:56;5.80;99.90
33255;DHT22;19623;52.482;9.762;2023-02-01T04:49:21;5.80;99.90
33255;DHT22;19623;52.482;9.762;2023-02-01T04:51:47;5.80;99.90
33255;DHT22;19623;52.482;9.762;2023-02-01T04:54:13;5.80;99.90
33255;DHT22;19623;52.482;9.762;2023-02-01T04:56:40;5.80;99.90
33255;DHT22;19623;52.482;9.762;2023-02-01T04:59:05;5.90;99.90
33255;DHT22;19623;52.482;9.762;2023-02-01T05:01:31;5.80;99.90
33255;DHT22;19623;52.482;9.762;2023-02-01T05:03:57;5.80;99.90
33255;DHT22;19623;52.482;9.762;2023-02-01T05:06:23;5.80;99.90
33255;DHT22;19623;52.482;9.762;2023-02-01T05:08:49;5.70;99.90
33255;DHT22;19623;52.482;9.762;2023-02-01T05:11:15;5.60;99.90
33255;DHT22;19623;52.482;9.762;2023-02-01T05:13:59;5.50;99.90
33255;DHT22;19623;52.482;9.762;2023-02-01T05:16:26;5.40;99.90
33255;DHT22;19623;52.482;9.762;2023-02-01T05:18:52;5.40;99.90
33255;DHT22;19623;52.482;9.762;2023-02-01T05:21:18;5.40;99.90
33255;DHT22;19623;52.482;9.762;2023-02-01T05:23:44;5.30;99.90
33255;DHT22;19623;52.482;9.762;2023-02-01T05:26:28;5.30;99.90
33255;DHT22;19623;52.482;9.762;2023-02-01T05:28:54;5.30;99.90
33255;DHT22;19623;52.482;9.762;2023-02-01T05:31:20;5.30;99.90
33255;DHT22;19623;52.482;9.762;2023-02-01T05:33:45;5.30;99.90
33255;DHT22;19623;52.482;9.762;2023-02-01T05:36:11;5.30;99.90
33255;DHT22;19623;52.482;9.762;2023-02-01T05:38:36;5.30;99.90
33255;DHT22;19623;52.482;9.762;2023-02-01T05:41:02;5.30;99.90
33255;DHT22;19623;52.482;9.762;2023-02-01T05:43:28;5.30;99.90
33255;DHT22;19623;52.482;9.762;2023-02-01T05:45:53;5.30;99.90
33255;DHT22;19623;52.482;9.762;2023-02-01T05:48:19;5.30;99.90
33255;DHT22;19623;52.482;9.762;2023-02-01T05:50:44;5.40;99.90
33255;DHT22;19623;52.482;9.762;2023-02-01T05:53:10;5.40;99.90
33255;DHT22;19623;52.482;9.762;2023-02-01T05:55:36;5.40;99.90
33255;DHT22;19623;52.482;9.762;2023-02-01T05:58:03;5.40;99.90
33255;DHT22;19623;52.482;9.762;2023-02-01T06:00:29;5.40;99.90
33255;DHT22;19623;52.482;9.762;2023-02-01T06:02:55;5.50;99.90
33255;DHT22;19623;52.482;9.762;2023-02-01T06:05:20;5.50;99.90
33255;DHT22;19623;52.482;9.762;2023-02-01T06:07:46;5.50;99.90
33255;DHT22;19623;52.482;9.762;2023-02-01T06:10:12;5.50;99.90
33255;DHT22;19623;52.482;9.762;2023-02-01T06:12:38;5.50;99.90
33255;DHT22;19623;52.482;9.762;2023-02-01T06:15:04;5.50;99.90
33255;DHT22;19623;52.482;9.762;2023-02-01T06:17:30;5.50;99.90
33255;DHT22;19623;52.482;9.762;2023-02-01T06:19:56;5.60;99.90
33255;DHT22;19623;52.482;9.762;2023-02-01T06:22:21;5.60;99.90
33255;DHT22;19623;52.482;9.762;2023-02-01T06:24:48;5.50;99.90
33255;DHT22;19623;52.482;9.762;2023-02-01T06:27:14;5.50;99.90
33255;DHT22;19623;52.482;9.762;2023-02-01T06:29:40;5.40;99.90
33255;DHT22;19623;52.482;9.762;2023-02-01T06:32:06;5.40;99.90
33255;DHT22;19623;52.482;9.762;2023-02-01T06:34:31;5.40;99.90
33255;DHT22;19623;52.482;9.762;2023-02-01T06:36:57;5.40;99.90
33255;DHT22;19623;52.482;9.762;2023-02-01T06:39:22;5.30;99.90
33255;DHT22;19623;52.482;9.762;2023-02-01T06:41:49;5.40;99.90
33255;DHT22;19623;52.482;9.762;2023-02-01T06:44:15;5.40;99.90
33255;DHT22;19623;52.482;9.762;2023-02-01T06:46:42;5.40;99.90
33255;DHT22;19623;52.482;9.762;2023-02-01T06:49:07;5.40;99.90
33255;DHT22;19623;52.482;9.762;2023-02-01T06:51:34;5.40;99.90
33255;DHT22;19623;52.482;9.762;2023-02-01T06:54:00;5.40;99.90
33255;DHT22;19623;52.482;9.762;2023-02-01T06:56:26;5.40;99.90
33255;DHT22;19623;52.482;9.762;2023-02-01T06:58:52;5.40;99.90
33255;DHT22;19623;52.482;9.762;2023-02-01T07:01:18;5.40;99.90
33255;DHT22;19623;52.482;9.762;2023-02-01T07:03:47;5.40;99.90
33255;DHT22;19623;52.482;9.762;2023-02-01T07:06:13;5.40;99.90
33255;DHT22;19623;52.482;9.762;2023-02-01T07:08:38;5.40;99.90
33255;DHT22;19623;52.482;9.762;2023-02-01T07:11:06;5.40;99.90
33255;DHT22;19623;52.482;9.762;2023-02-01T07:13:33;5.40;99.90
33255;DHT22;19623;52.482;9.762;2023-02-01T07:16:00;5.40;99.90
33255;DHT22;19623;52.482;9.762;2023-02-01T07:18:27;5.40;99.90
33255;DHT22;19623;52.482;9.762;2023-02-01T07:20:53;5.40;99.90
33255;DHT22;19623;52.482;9.762;2023-02-01T07:23:19;5.50;99.90
33255;DHT22;19623;52.482;9.762;2023-02-01T07:25:45;5.50;99.90
33255;DHT22;19623;52.482;9.762;2023-02-01T07:28:11;5.50;99.90
33255;DHT22;19623;52.482;9.762;2023-02-01T07:30:37;5.50;99.90
33255;DHT22;19623;52.482;9.762;2023-02-01T07:33:02;5.50;99.90
33255;DHT22;19623;52.482;9.762;2023-02-01T07:35:28;5.50;99.90
33255;DHT22;19623;52.482;9.762;2023-02-01T07:37:54;5.50;99.90
33255;DHT22;19623;52.482;9.762;2023-02-01T07:40:20;5.50;99.90
33255;DHT22;19623;52.482;9.762;2023-02-01T07:42:50;5.50;99.90
33255;DHT22;19623;52.482;9.762;2023-02-01T07:45:16;5.50;99.90
33255;DHT22;19623;52.482;9.762;2023-02-01T07:47:41;5.50;99.90
33255;DHT22;19623;52.482;9.762;2023-02-01T07:50:07;5.60;99.90
33255;DHT22;19623;52.482;9.762;2023-02-01T07:52:33;5.60;99.90
33255;DHT22;19623;52.482;9.762;2023-02-01T07:54:59;5.60;99.90
33255;DHT22;19623;52.482;9.762;2023-02-01T07:57:24;5.60;99.90
33255;DHT22;19623;52.482;9.762;2023-02-01T07:59:50;5.70;99.90
33255;DHT22;19623;52.482;9.762;2023-02-01T08:02:34;5.70;99.90
33255;DHT22;19623;52.482;9.762;2023-02-01T08:05:00;5.70;99.90
33255;DHT22;19623;52.482;9.762;2023-02-01T08:07:25;5.70;99.90
33255;DHT22;19623;52.482;9.762;2023-02-01T08:09:51;5.80;99.90
33255;DHT22;19623;52.482;9.762;2023-02-01T08:12:17;5.80;99.90
33255;DHT22;19623;52.482;9.762;2023-02-01T08:14:42;5.80;99.90
33255;DHT22;19623;52.482;9.762;2023-02-01T08:17:08;5.80;99.90
33255;DHT22;19623;52.482;9.762;2023-02-01T08:19:33;5.80;99.90
33255;DHT22;19623;52.482;9.762;2023-02-01T08:21:59;5.90;99.90
33255;DHT22;19623;52.482;9.762;2023-02-01T08:24:27;5.90;99.90
33255;DHT22;19623;52.482;9.762;2023-02-01T08:26:52;5.90;99.90
33255;DHT22;19623;52.482;9.762;2023-02-01T08:29:18;6.00;99.90
33255;DHT22;19623;52.482;9.762;2023-02-01T08:31:44;6.10;99.90
33255;DHT22;19623;52.482;9.762;2023-02-01T08:34:09;6.10;99.90
33255;DHT22;19623;52.482;9.762;2023-02-01T08:36:37;6.10;99.90
33255;DHT22;19623;52.482;9.762;2023-02-01T08:39:03;6.10;99.90
33255;DHT22;19623;52.482;9.762;2023-02-01T08:41:34;6.10;99.90
33255;DHT22;19623;52.482;9.762;2023-02-01T08:43:59;6.10;99.90
33255;DHT22;19623;52.482;9.762;2023-02-01T08:46:25;6.10;99.90
33255;DHT22;19623;52.482;9.762;2023-02-01T08:48:51;6.20;99.90
33255;DHT22;19623;52.482;9.762;2023-02-01T08:51:20;6.20;99.90
33255;DHT22;19623;52.482;9.762;2023-02-01T08:53:46;6.20;99.90
33255;DHT22;19623;52.482;9.762;2023-02-01T08:56:14;6.20;99.90
33255;DHT22;19623;52.482;9.762;2023-02-01T08:58:40;6.20;99.90
33255;DHT22;19623;52.482;9.762;2023-02-01T09:01:10;6.20;99.90
33255;DHT22;19623;52.482;9.762;2023-02-01T09:03:37;6.30;99.90
33255;DHT22;19623;52.482;9.762;2023-02-01T09:06:05;6.40;99.90
33255;DHT22;19623;52.482;9.762;2023-02-01T09:08:31;6.50;99.90
33255;DHT22;19623;52.482;9.762;2023-02-01T09:11:02;6.50;99.90
33255;DHT22;19623;52.482;9.762;2023-02-01T09:13:28;6.60;99.90
33255;DHT22;19623;52.482;9.762;2023-02-01T09:15:54;6.70;99.90
33255;DHT22;19623;52.482;9.762;2023-02-01T09:18:20;6.80;99.90
33255;DHT22;19623;52.482;9.762;2023-02-01T09:20:46;6.80;99.90
33255;DHT22;19623;52.482;9.762;2023-02-01T09:23:11;6.70;99.90
33255;DHT22;19623;52.482;9.762;2023-02-01T09:25:38;6.70;99.90
33255;DHT22;19623;52.482;9.762;2023-02-01T09:28:04;6.80;99.90
33255;DHT22;19623;52.482;9.762;2023-02-01T09:30:32;6.80;99.90
33255;DHT22;19623;52.482;9.762;2023-02-01T09:32:58;6.90;99.90
33255;DHT22;19623;52.482;9.762;2023-02-01T09:35:24;6.90;99.90
33255;DHT22;19623;52.482;9.762;2023-02-01T09:37:49;6.80;99.90
33255;DHT22;19623;52.482;9.762;2023-02-01T09:40:16;6.80;99.90
33255;DHT22;19623;52.482;9.762;2023-02-01T09:48:24;7.00;99.90
33255;DHT22;19623;52.482;9.762;2023-02-01T09:50:57;7.00;99.90
33255;DHT22;19623;52.482;9.762;2023-02-01T09:53:36;6.90;99.90
33255;DHT22;19623;52.482;9.762;2023-02-01T09:56:24;6.90;99.90
33255;DHT22;19623;52.482;9.762;2023-02-01T09:58:56;6.90;99.90
33255;DHT22;19623;52.482;9.762;2023-02-01T10:01:26;6.90;99.90
33255;DHT22;19623;52.482;9.762;2023-02-01T10:04:01;7.00;99.90
33255;DHT22;19623;52.482;9.762;2023-02-01T10:15:17;7.10;99.90
33255;DHT22;19623;52.482;9.762;2023-02-01T10:18:07;7.10;99.90
33255;DHT22;19623;52.482;9.762;2023-02-01T10:20:56;7.20;99.90
33255;DHT22;19623;52.482;9.762;2023-02-01T10:23:50;7.20;99.90
33255;DHT22;19623;52.482;9.762;2023-02-01T10:26:22;7.20;99.90
33255;DHT22;19623;52.482;9.762;2023-02-01T10:28:54;7.20;99.90
33255;DHT22;19623;52.482;9.762;2023-02-01T10:31:24;7.20;99.90
33255;DHT22;19623;52.482;9.762;2023-02-01T10:34:06;7.30;99.90
33255;DHT22;19623;52.482;9.762;2023-02-01T10:36:47;7.20;99.90
33255;DHT22;19623;52.482;9.762;2023-02-01T10:39:15;7.20;99.90
33255;DHT22;19623;52.482;9.762;2023-02-01T10:41:41;7.20;99.90
33255;DHT22;19623;52.482;9.762;2023-02-01T10:44:14;7.20;99.90
33255;DHT22;19623;52.482;9.762;2023-02-01T10:46:40;7.30;99.90
33255;DHT22;19623;52.482;9.762;2023-02-01T10:52:18;7.30;99.90
33255;DHT22;19623;52.482;9.762;2023-02-01T10:54:45;7.30;99.90
33255;DHT22;19623;52.482;9.762;2023-02-01T10:57:26;7.30;99.90
33255;DHT22;19623;52.482;9.762;2023-02-01T10:59:55;7.30;99.90
33255;DHT22;19623;52.482;9.762;2023-02-01T11:02:29;7.20;99.90
33255;DHT22;19623;52.482;9.762;2023-02-01T11:05:04;7.30;99.90
33255;DHT22;19623;52.482;9.762;2023-02-01T11:07:31;7.30;99.90
33255;DHT22;19623;52.482;9.762;2023-02-01T11:09:57;7.30;99.90
33255;DHT22;19623;52.482;9.762;2023-02-01T11:12:29;7.30;99.90
33255;DHT22;19623;52.482;9.762;2023-02-01T11:15:01;7.30;99.90
33255;DHT22;19623;52.482;9.762;2023-02-01T11:17:33;7.40;99.90
33255;DHT22;19623;52.482;9.762;2023-02-01T11:20:02;7.30;99.90
33255;DHT22;19623;52.482;9.762;2023-02-01T11:22:28;7.30;99.90
33255;DHT22;19623;52.482;9.762;2023-02-01T11:24:59;7.30;99.90
33255;DHT22;19623;52.482;9.762;2023-02-01T11:27:27;7.40;99.90
33255;DHT22;19623;52.482;9.762;2023-02-01T11:29:57;7.40;99.90
33255;DHT22;19623;52.482;9.762;2023-02-01T11:32:24;7.40;99.90
33255;DHT22;19623;52.482;9.762;2023-02-01T11:35:01;7.40;99.90
33255;DHT22;19623;52.482;9.762;2023-02-01T11:37:32;7.50;99.90
33255;DHT22;19623;52.482;9.762;2023-02-01T11:40:27;7.60;99.90
33255;DHT22;19623;52.482;9.762;2023-02-01T11:45:31;7.70;99.90
33255;DHT22;19623;52.482;9.762;2023-02-01T11:48:00;7.70;99.90
33255;DHT22;19623;52.482;9.762;2023-02-01T11:53:14;7.70;99.90
33255;DHT22;19623;52.482;9.762;2023-02-01T12:04:07;7.50;99.90
33255;DHT22;19623;52.482;9.762;2023-02-01T12:28:00;7.30;99.90
33255;DHT22;19623;52.482;9.762;2023-02-01T12:30:57;7.30;99.90
33255;DHT22;19623;52.482;9.762;2023-02-01T12:36:29;7.10;99.90
33255;DHT22;19623;52.482;9.762;2023-02-01T12:39:22;7.00;99.90
33255;DHT22;19623;52.482;9.762;2023-02-01T12:41:53;6.90;99.90
33255;DHT22;19623;52.482;9.762;2023-02-01T12:44:38;6.90;99.90
33255;DHT22;19623;52.482;9.762;2023-02-01T12:47:06;6.90;99.90
33255;DHT22;19623;52.482;9.762;2023-02-01T12:52:35;6.70;99.90
33255;DHT22;19623;52.482;9.762;2023-02-01T12:55:39;6.60;99.90
33255;DHT22;19623;52.482;9.762;2023-02-01T12:58:17;6.40;99.90
33255;DHT22;19623;52.482;9.762;2023-02-01T13:01:00;6.30;99.90
33255;DHT22;19623;52.482;9.762;2023-02-01T13:06:00;6.20;99.90
33255;DHT22;19623;52.482;9.762;2023-02-01T13:09:01;6.20;99.90
33255;DHT22;19623;52.482;9.762;2023-02-01T13:11:50;6.10;99.90
33255;DHT22;19623;52.482;9.762;2023-02-01T13:14:33;6.20;99.90
33255;DHT22;19623;52.482;9.762;2023-02-01T13:17:28;6.10;99.90
33255;DHT22;19623;52.482;9.762;2023-02-01T13:20:19;6.00;99.90
33255;DHT22;19623;52.482;9.762;2023-02-01T13:26:07;5.50;99.90
33255;DHT22;19623;52.482;9.762;2023-02-01T13:28:52;5.10;99.90
33255;DHT22;19623;52.482;9.762;2023-02-01T13:34:26;4.70;99.90
33255;DHT22;19623;52.482;9.762;2023-02-01T13:42:28;4.40;99.90
33255;DHT22;19623;52.482;9.762;2023-02-01T13:45:03;4.40;99.90
33255;DHT22;19623;52.482;9.762;2023-02-01T13:47:39;4.30;99.90
33255;DHT22;19623;52.482;9.762;2023-02-01T13:55:32;4.30;99.90
33255;DHT22;19623;52.482;9.762;2023-02-01T14:00:50;4.20;99.90
33255;DHT22;19623;52.482;9.762;2023-02-01T14:03:20;4.20;99.90
33255;DHT22;19623;52.482;9.762;2023-02-01T14:08:39;4.30;99.90
33255;DHT22;19623;52.482;9.762;2023-02-01T14:11:05;4.30;99.90
33255;DHT22;19623;52.482;9.762;2023-02-01T14:13:41;4.30;99.90
33255;DHT22;19623;52.482;9.762;2023-02-01T14:16:17;4.30;99.90
33255;DHT22;19623;52.482;9.762;2023-02-01T14:21:28;4.30;99.90
33255;DHT22;19623;52.482;9.762;2023-02-01T14:24:01;4.30;99.90
33255;DHT22;19623;52.482;9.762;2023-02-01T14:34:50;4.20;99.90
33255;DHT22;19623;52.482;9.762;2023-02-01T14:40:05;4.10;99.90
33255;DHT22;19623;52.482;9.762;2023-02-01T14:58:42;4.10;99.90
33255;DHT22;19623;52.482;9.762;2023-02-01T15:01:34;4.00;99.90
33255;DHT22;19623;52.482;9.762;2023-02-01T15:04:12;3.90;99.90
33255;DHT22;19623;52.482;9.762;2023-02-01T15:12:29;3.80;99.90
33255;DHT22;19623;52.482;9.762;2023-02-01T15:15:18;3.80;99.90
33255;DHT22;19623;52.482;9.762;2023-02-01T15:17:55;3.80;99.90
33255;DHT22;19623;52.482;9.762;2023-02-01T15:20:27;3.70;99.90
33255;DHT22;19623;52.482;9.762;2023-02-01T15:23:02;3.70;99.90
33255;DHT22;19623;52.482;9.762;2023-02-01T15:25:36;3.70;99.90
33255;DHT22;19623;52.482;9.762;2023-02-01T15:28:04;3.70;99.90
33255;DHT22;19623;52.482;9.762;2023-02-01T15:30:33;3.60;99.90
33255;DHT22;19623;52.482;9.762;2023-02-01T15:33:15;3.60;99.90
33255;DHT22;19623;52.482;9.762;2023-02-01T15:35:50;3.60;99.90
33255;DHT22;19623;52.482;9.762;2023-02-01T15:38:35;3.60;99.90
33255;DHT22;19623;52.482;9.762;2023-02-01T15:43:35;3.60;99.90
33255;DHT22;19623;52.482;9.762;2023-02-01T15:46:06;3.60;99.90
33255;DHT22;19623;52.482;9.762;2023-02-01T15:48:34;3.60;99.90
33255;DHT22;19623;52.482;9.762;2023-02-01T15:51:00;3.60;99.90
33255;DHT22;19623;52.482;9.762;2023-02-01T15:53:26;3.60;99.90
33255;DHT22;19623;52.482;9.762;2023-02-01T15:56:01;3.60;99.90
33255;DHT22;19623;52.482;9.762;2023-02-01T15:58:29;3.60;99.90
33255;DHT22;19623;52.482;9.762;2023-02-01T16:01:00;3.60;99.90
33255;DHT22;19623;52.482;9.762;2023-02-01T16:05:58;3.60;99.90
33255;DHT22;19623;52.482;9.762;2023-02-01T16:08:27;3.60;99.90
33255;DHT22;19623;52.482;9.762;2023-02-01T16:10:59;3.60;99.90
33255;DHT22;19623;52.482;9.762;2023-02-01T16:13:26;3.70;99.90
33255;DHT22;19623;52.482;9.762;2023-02-01T16:15:51;3.70;99.90
33255;DHT22;19623;52.482;9.762;2023-02-01T16:18:17;3.70;99.90
33255;DHT22;19623;52.482;9.762;2023-02-01T16:20:46;3.70;99.90
33255;DHT22;19623;52.482;9.762;2023-02-01T16:23:12;3.70;99.90
33255;DHT22;19623;52.482;9.762;2023-02-01T16:25:39;3.70;99.90
33255;DHT22;19623;52.482;9.762;2023-02-01T16:28:04;3.80;99.90
33255;DHT22;19623;52.482;9.762;2023-02-01T16:30:30;3.80;99.90
33255;DHT22;19623;52.482;9.762;2023-02-01T16:32:58;3.80;99.90
33255;DHT22;19623;52.482;9.762;2023-02-01T16:35:33;3.90;99.90
33255;DHT22;19623;52.482;9.762;2023-02-01T16:38:05;3.90;99.90
33255;DHT22;19623;52.482;9.762;2023-02-01T16:40:34;3.90;99.90
33255;DHT22;19623;52.482;9.762;2023-02-01T16:43:00;3.90;99.90
33255;DHT22;19623;52.482;9.762;2023-02-01T16:45:26;4.00;99.90
33255;DHT22;19623;52.482;9.762;2023-02-01T16:47:54;4.00;99.90
33255;DHT22;19623;52.482;9.762;2023-02-01T16:50:25;4.00;99.90
33255;DHT22;19623;52.482;9.762;2023-02-01T16:52:52;4.00;99.90
33255;DHT22;19623;52.482;9.762;2023-02-01T16:55:19;4.10;99.90
33255;DHT22;19623;52.482;9.762;2023-02-01T16:57:47;4.20;99.90
33255;DHT22;19623;52.482;9.762;2023-02-01T17:00:13;4.20;99.90
33255;DHT22;19623;52.482;9.762;2023-02-01T17:02:41;4.30;99.90
33255;DHT22;19623;52.482;9.762;2023-02-01T17:05:08;4.40;99.90
33255;DHT22;19623;52.482;9.762;2023-02-01T17:07:35;4.50;99.90
33255;DHT22;19623;52.482;9.762;2023-02-01T17:10:01;4.60;99.90
33255;DHT22;19623;52.482;9.762;2023-02-01T17:12:30;4.60;99.90
33255;DHT22;19623;52.482;9.762;2023-02-01T17:14:57;4.60;99.90
33255;DHT22;19623;52.482;9.762;2023-02-01T17:17:23;4.70;99.90
33255;DHT22;19623;52.482;9.762;2023-02-01T17:19:51;4.70;99.90
33255;DHT22;19623;52.482;9.762;2023-02-01T17:22:22;4.70;99.90
33255;DHT22;19623;52.482;9.762;2023-02-01T17:24:49;4.60;99.90
33255;DHT22;19623;52.482;9.762;2023-02-01T17:27:16;4.60;99.90
33255;DHT22;19623;52.482;9.762;2023-02-01T17:29:42;4.60;99.90
33255;DHT22;19623;52.482;9.762;2023-02-01T17:32:21;4.60;99.90
33255;DHT22;19623;52.482;9.762;2023-02-01T17:34:47;4.60;99.90
33255;DHT22;19623;52.482;9.762;2023-02-01T17:37:28;4.60;99.90
33255;DHT22;19623;52.482;9.762;2023-02-01T17:39:55;4.70;99.90
33255;DHT22;19623;52.482;9.762;2023-02-01T17:42:21;4.70;99.90
33255;DHT22;19623;52.482;9.762;2023-02-01T17:44:49;4.70;99.90
33255;DHT22;19623;52.482;9.762;2023-02-01T17:47:18;4.70;99.90
33255;DHT22;19623;52.482;9.762;2023-02-01T17:49:44;4.60;99.90
33255;DHT22;19623;52.482;9.762;2023-02-01T17:52:16;4.60;99.90
33255;DHT22;19623;52.482;9.762;2023-02-01T17:54:43;4.70;99.90
33255;DHT22;19623;52.482;9.762;2023-02-01T17:57:12;4.60;99.90
33255;DHT22;19623;52.482;9.762;2023-02-01T17:59:38;4.60;99.90
33255;DHT22;19623;52.482;9.762;2023-02-01T18:02:18;4.60;99.90
33255;DHT22;19623;52.482;9.762;2023-02-01T18:04:44;4.60;99.90
33255;DHT22;19623;52.482;9.762;2023-02-01T18:07:10;4.50;99.90
33255;DHT22;19623;52.482;9.762;2023-02-01T18:09:35;4.40;99.90
33255;DHT22;19623;52.482;9.762;2023-02-01T18:12:03;4.40;99.90
33255;DHT22;19623;52.482;9.762;2023-02-01T18:14:29;4.30;99.90
33255;DHT22;19623;52.482;9.762;2023-02-01T18:16:55;4.30;99.90
33255;DHT22;19623;52.482;9.762;2023-02-01T18:19:20;4.30;99.90
33255;DHT22;19623;52.482;9.762;2023-02-01T18:21:46;4.30;99.90
33255;DHT22;19623;52.482;9.762;2023-02-01T18:24:13;4.20;99.90
33255;DHT22;19623;52.482;9.762;2023-02-01T18:26:39;4.30;99.90
33255;DHT22;19623;52.482;9.762;2023-02-01T18:29:05;4.40;99.90
33255;DHT22;19623;52.482;9.762;2023-02-01T18:31:31;4.40;99.90
33255;DHT22;19623;52.482;9.762;2023-02-01T18:33:58;4.50;99.90